createdAt,value
2018-07-11T00:02:12.076Z,100.00
2018-07-11T00:04:38.402Z,100.00
2018-07-11T00:07:04.730Z,100.00
2018-07-11T00:09:31.043Z,100.00
2018-07-11T00:11:57.362Z,100.00
2018-07-11T00:14:23.677Z,100.00
2018-07-11T00:16:49.990Z,100.00
2018-07-11T00:19:16.307Z,100.00
2018-07-11T00:21:42.618Z,100.00
2018-07-11T00:24:08.928Z,100.00
2018-07-11T00:26:35.244Z,100.00
2018-07-11T00:29:01.559Z,100.00
2018-07-11T00:31:27.882Z,100.00
2018-07-11T00:33:54.197Z,100.00
2018-07-11T00:36:20.508Z,100.00
2018-07-11T00:38:46.824Z,100.00
2018-07-11T00:41:13.134Z,100.00
2018-07-11T00:43:39.449Z,100.00
2018-07-11T00:46:05.765Z,100.00
2018-07-11T00:48:32.072Z,100.00
2018-07-11T00:50:58.386Z,100.00
2018-07-11T00:53:24.700Z,100.00
2018-07-11T00:55:51.022Z,100.00
2018-07-11T00:58:17.324Z,100.00
2018-07-11T01:00:43.641Z,100.00
2018-07-11T01:03:09.960Z,100.00
2018-07-11T01:05:36.332Z,100.00
2018-07-11T01:08:02.681Z,100.00
2018-07-11T01:10:29.095Z,100.00
2018-07-11T01:12:55.456Z,100.00
2018-07-11T01:15:21.813Z,100.00
2018-07-11T01:17:48.161Z,100.00
2018-07-11T01:20:14.525Z,100.00
2018-07-11T01:22:40.886Z,100.00
2018-07-11T01:25:07.257Z,100.00
2018-07-11T01:27:33.609Z,100.00
2018-07-11T01:29:59.969Z,100.00
2018-07-11T01:32:26.321Z,100.00
2018-07-11T01:34:52.673Z,100.00
2018-07-11T01:37:19.033Z,100.00
2018-07-11T01:39:45.395Z,100.00
2018-07-11T01:42:11.754Z,100.00
2018-07-11T01:44:38.152Z,100.00
2018-07-11T01:47:04.512Z,100.00
2018-07-11T01:49:30.910Z,100.00
2018-07-11T01:51:57.299Z,100.00
2018-07-11T01:54:23.628Z,100.00
2018-07-11T01:56:49.980Z,100.00
2018-07-11T01:59:16.343Z,100.00
2018-07-11T02:01:42.695Z,100.00
2018-07-11T02:04:09.050Z,100.00
2018-07-11T02:06:35.421Z,100.00
2018-07-11T02:09:01.787Z,100.00
2018-07-11T02:11:28.138Z,100.00
2018-07-11T02:13:54.498Z,100.00
2018-07-11T02:16:20.881Z,100.00
2018-07-11T02:18:47.288Z,100.00
2018-07-11T02:21:13.677Z,100.00
2018-07-11T02:23:40.036Z,100.00
2018-07-11T02:26:06.444Z,100.00
2018-07-11T02:28:32.805Z,100.00
2018-07-11T02:30:59.160Z,100.00
2018-07-11T02:33:25.513Z,100.00
2018-07-11T02:35:51.862Z,100.00
2018-07-11T02:38:18.216Z,100.00
2018-07-11T02:40:44.584Z,100.00
2018-07-11T02:43:10.978Z,100.00
2018-07-11T02:45:37.333Z,100.00
2018-07-11T02:48:03.691Z,100.00
2018-07-11T02:50:30.048Z,100.00
2018-07-11T02:52:56.408Z,100.00
2018-07-11T02:55:22.761Z,100.00
2018-07-11T02:57:49.125Z,100.00
2018-07-11T03:00:15.517Z,100.00
2018-07-11T03:02:41.871Z,100.00
2018-07-11T03:05:08.225Z,100.00
2018-07-11T03:07:34.631Z,100.00
2018-07-11T03:10:00.989Z,100.00
2018-07-11T03:12:27.342Z,100.00
2018-07-11T03:14:53.694Z,100.00
2018-07-11T03:17:20.051Z,100.00
2018-07-11T03:19:46.402Z,100.00
2018-07-11T03:22:12.761Z,100.00
2018-07-11T03:24:39.117Z,100.00
2018-07-11T03:27:05.470Z,100.00
2018-07-11T03:29:31.825Z,100.00
2018-07-11T03:31:58.193Z,100.00
2018-07-11T03:34:24.554Z,100.00
2018-07-11T03:36:50.930Z,100.00
2018-07-11T03:39:17.285Z,100.00
2018-07-11T03:41:43.640Z,100.00
2018-07-11T03:44:10.033Z,100.00
2018-07-11T03:46:36.429Z,100.00
2018-07-11T03:49:02.834Z,100.00
2018-07-11T03:51:29.187Z,100.00
2018-07-11T03:53:55.546Z,100.00
2018-07-11T03:56:21.906Z,100.00
2018-07-11T03:58:48.266Z,100.00
2018-07-11T04:01:14.621Z,100.00
2018-07-11T04:03:41.025Z,100.00
2018-07-11T04:06:07.381Z,100.00
2018-07-11T04:08:33.838Z,100.00
2018-07-11T04:11:00.159Z,100.00
2018-07-11T04:13:26.508Z,100.00
2018-07-11T04:15:52.892Z,100.00
2018-07-11T04:18:19.241Z,100.00
2018-07-11T04:20:45.643Z,100.00
2018-07-11T04:23:12.220Z,100.00
2018-07-11T04:25:38.592Z,100.00
2018-07-11T04:28:04.951Z,100.00
2018-07-11T04:30:31.317Z,100.00
2018-07-11T04:32:57.688Z,100.00
2018-07-11T04:35:24.049Z,100.00
2018-07-11T04:37:50.445Z,100.00
2018-07-11T04:40:16.804Z,100.00
2018-07-11T04:42:43.158Z,100.00
2018-07-11T04:45:09.520Z,100.00
2018-07-11T04:47:35.900Z,100.00
2018-07-11T04:50:02.266Z,100.00
2018-07-11T04:52:28.626Z,100.00
2018-07-11T04:54:55.087Z,100.00
2018-07-11T04:57:21.418Z,100.00
2018-07-11T04:59:47.840Z,100.00
2018-07-11T05:02:14.296Z,100.00
2018-07-11T05:04:40.711Z,100.00
2018-07-11T05:07:07.120Z,100.00
2018-07-11T05:09:33.477Z,100.00
2018-07-11T05:11:59.907Z,100.00
2018-07-11T05:14:26.280Z,100.00
2018-07-11T05:16:52.640Z,100.00
2018-07-11T05:19:19.027Z,100.00
2018-07-11T05:21:45.427Z,100.00
2018-07-11T05:24:11.856Z,100.00
2018-07-11T05:26:38.173Z,100.00
2018-07-11T05:29:04.533Z,100.00
2018-07-11T05:31:30.888Z,100.00
2018-07-11T05:33:57.409Z,100.00
2018-07-11T05:36:23.865Z,100.00
2018-07-11T05:38:50.181Z,100.00
2018-07-11T05:41:16.544Z,100.00
2018-07-11T05:43:42.897Z,100.00
2018-07-11T05:46:09.250Z,100.00
2018-07-11T05:48:35.606Z,100.00
2018-07-11T05:51:01.958Z,100.00
2018-07-11T05:53:28.313Z,100.00
2018-07-11T05:55:54.671Z,100.00
2018-07-11T05:58:21.084Z,100.00
2018-07-11T06:00:47.414Z,100.00
2018-07-11T06:03:13.772Z,100.00
2018-07-11T06:05:40.134Z,100.00
2018-07-11T06:08:06.504Z,100.00
2018-07-11T06:10:32.870Z,100.00
2018-07-11T06:12:59.257Z,100.00
2018-07-11T06:15:25.694Z,100.00
2018-07-11T06:17:52.060Z,100.00
2018-07-11T06:20:18.482Z,100.00
2018-07-11T06:22:44.852Z,100.00
2018-07-11T06:25:11.217Z,100.00
2018-07-11T06:27:37.571Z,100.00
2018-07-11T06:30:03.971Z,100.00
2018-07-11T06:32:30.341Z,100.00
2018-07-11T06:34:56.690Z,99.77
2018-07-11T06:37:23.058Z,99.75
2018-07-11T06:39:49.424Z,99.87
2018-07-11T06:42:15.781Z,99.45
2018-07-11T06:44:42.132Z,98.75
2018-07-11T06:47:08.495Z,97.99
2018-07-11T06:49:34.896Z,96.64
2018-07-11T06:52:01.312Z,96.75
2018-07-11T06:54:27.607Z,96.72
2018-07-11T06:56:53.967Z,95.06
2018-07-11T06:59:20.327Z,96.57
2018-07-11T07:01:46.687Z,95.51
2018-07-11T07:04:13.045Z,96.10
2018-07-11T07:06:39.403Z,96.31
2018-07-11T07:09:05.761Z,95.97
2018-07-11T07:11:32.171Z,94.05
2018-07-11T07:13:58.534Z,93.31
2018-07-11T07:16:24.944Z,91.04
2018-07-11T07:18:51.264Z,93.67
2018-07-11T07:21:17.616Z,94.70
2018-07-11T07:23:43.973Z,95.61
2018-07-11T07:26:10.329Z,94.10
2018-07-11T07:28:36.696Z,92.76
2018-07-11T07:31:03.062Z,90.27
2018-07-11T07:33:29.408Z,92.35
2018-07-11T07:35:55.766Z,90.75
2018-07-11T07:38:22.139Z,89.80
2018-07-11T07:40:48.552Z,88.52
2018-07-11T07:43:15.008Z,89.97
2018-07-11T07:45:41.524Z,88.38
2018-07-11T07:48:07.891Z,89.38
2018-07-11T07:50:34.289Z,90.04
2018-07-11T07:53:00.624Z,87.04
2018-07-11T07:55:26.977Z,86.29
2018-07-11T07:57:53.334Z,85.83
2018-07-11T08:00:19.691Z,82.96
2018-07-11T08:02:46.163Z,82.76
2018-07-11T08:05:12.854Z,84.84
2018-07-11T08:07:39.225Z,84.03
2018-07-11T08:10:05.593Z,83.30
2018-07-11T08:12:31.998Z,82.14
2018-07-11T08:14:58.353Z,81.97
2018-07-11T08:17:24.739Z,81.61
2018-07-11T08:19:51.078Z,80.89
2018-07-11T08:22:17.453Z,82.41
2018-07-11T08:24:43.758Z,81.84
2018-07-11T08:27:10.184Z,82.11
2018-07-11T08:29:36.443Z,80.06
2018-07-11T08:32:02.755Z,80.75
2018-07-11T08:34:29.076Z,81.04
2018-07-11T08:36:55.389Z,79.08
2018-07-11T08:39:21.707Z,79.42
2018-07-11T08:41:48.025Z,80.49
2018-07-11T08:44:14.348Z,78.08
2018-07-11T08:46:40.667Z,77.34
2018-07-11T08:49:06.993Z,78.50
2018-07-11T08:51:33.371Z,76.40
2018-07-11T08:53:59.687Z,77.67
2018-07-11T08:56:26.006Z,77.08
2018-07-11T08:58:52.371Z,77.37
2018-07-11T09:01:18.681Z,76.18
2018-07-11T09:03:45.006Z,73.79
2018-07-11T09:06:11.333Z,74.52
2018-07-11T09:08:37.689Z,69.82
2018-07-11T09:11:04.002Z,71.72
2018-07-11T09:13:30.318Z,71.57
2018-07-11T09:15:56.641Z,70.94
2018-07-11T09:18:22.995Z,70.01
2018-07-11T09:20:49.348Z,67.27
2018-07-11T09:23:15.703Z,67.80
2018-07-11T09:25:42.016Z,67.61
2018-07-11T09:28:08.379Z,65.83
2018-07-11T09:33:01.011Z,65.88
2018-07-11T09:35:27.325Z,66.53
2018-07-11T09:37:53.647Z,66.02
2018-07-11T09:40:19.980Z,66.29
2018-07-11T09:42:46.301Z,64.90
2018-07-11T09:45:12.617Z,65.31
2018-07-11T09:47:38.928Z,66.08
2018-07-11T09:50:05.250Z,65.55
2018-07-11T09:52:31.563Z,66.23
2018-07-11T09:54:57.883Z,63.99
2018-07-11T09:57:24.207Z,64.04
2018-07-11T09:59:50.532Z,65.92
2018-07-11T10:02:16.853Z,65.96
2018-07-11T10:04:43.169Z,66.72
2018-07-11T10:07:09.491Z,64.93
2018-07-11T10:09:35.808Z,65.52
2018-07-11T10:12:02.153Z,64.50
2018-07-11T10:14:28.443Z,64.00
2018-07-11T10:16:54.759Z,64.44
2018-07-11T10:19:21.087Z,62.39
2018-07-11T10:21:47.399Z,63.68
2018-07-11T10:24:13.710Z,60.47
2018-07-11T10:26:40.026Z,60.35
2018-07-11T10:29:06.355Z,59.69
2018-07-11T10:31:32.710Z,58.98
2018-07-11T10:33:59.121Z,58.98
2018-07-11T10:36:25.497Z,61.26
2018-07-11T10:38:51.865Z,58.21
2018-07-11T10:41:18.187Z,57.32
2018-07-11T10:43:44.501Z,58.55
2018-07-11T10:46:10.873Z,59.56
2018-07-11T10:48:37.251Z,58.65
2018-07-11T10:51:03.552Z,60.13
2018-07-11T10:53:29.865Z,57.08
2018-07-11T10:55:56.183Z,57.99
2018-07-11T10:58:22.619Z,59.12
2018-07-11T11:01:05.031Z,57.73
2018-07-11T11:03:15.132Z,57.79
2018-07-11T11:05:41.451Z,58.14
2018-07-11T11:08:07.849Z,57.54
2018-07-11T11:10:34.097Z,55.08
2018-07-11T11:13:00.435Z,56.79
2018-07-11T11:15:26.746Z,56.90
2018-07-11T11:17:53.065Z,55.34
2018-07-11T11:20:19.388Z,54.76
2018-07-11T11:22:45.703Z,53.67
2018-07-11T11:25:12.035Z,53.76
2018-07-11T11:27:38.387Z,53.13
2018-07-11T11:30:04.673Z,53.47
2018-07-11T11:32:30.985Z,53.32
2018-07-11T11:34:57.301Z,52.82
2018-07-11T11:37:23.621Z,52.25
2018-07-11T11:39:49.935Z,52.09
2018-07-11T11:42:16.321Z,51.16
2018-07-11T11:44:42.570Z,51.06
2018-07-11T11:47:08.885Z,51.08
2018-07-11T11:49:35.196Z,50.72
2018-07-11T11:52:01.555Z,51.67
2018-07-11T11:54:27.849Z,51.68
2018-07-11T11:56:54.161Z,51.58
2018-07-11T11:59:20.476Z,52.21
2018-07-11T12:01:46.946Z,51.85
2018-07-11T12:04:13.116Z,51.46
2018-07-11T12:06:39.434Z,51.41
2018-07-11T12:09:05.753Z,50.78
2018-07-11T12:11:32.065Z,50.10
2018-07-11T12:13:58.423Z,50.38
2018-07-11T12:16:24.738Z,50.12
2018-07-11T12:18:51.054Z,51.44
2018-07-11T12:21:17.417Z,50.93
2018-07-11T12:23:43.687Z,49.81
2018-07-11T12:26:10.011Z,50.32
2018-07-11T12:28:36.326Z,50.07
2018-07-11T12:31:02.647Z,50.45
2018-07-11T12:33:29.005Z,50.95
2018-07-11T12:35:55.284Z,50.92
2018-07-11T12:38:21.635Z,50.09
2018-07-11T12:40:47.984Z,49.47
2018-07-11T12:43:14.294Z,49.53
2018-07-11T12:45:40.620Z,50.01
2018-07-11T12:48:06.935Z,49.98
2018-07-11T12:50:33.330Z,50.40
2018-07-11T12:52:59.611Z,52.36
2018-07-11T12:55:25.921Z,51.67
2018-07-11T12:57:52.276Z,51.47
2018-07-11T13:00:18.588Z,51.05
2018-07-11T13:02:44.921Z,51.03
2018-07-11T13:05:11.232Z,51.68
2018-07-11T13:07:37.574Z,51.01
2018-07-11T13:10:03.894Z,53.17
2018-07-11T13:12:30.210Z,52.03
2018-07-11T13:14:56.533Z,52.61
2018-07-11T13:17:22.861Z,51.50
2018-07-11T13:19:49.184Z,51.38
2018-07-11T13:22:15.494Z,51.71
2018-07-11T13:24:41.837Z,51.89
2018-07-11T13:27:08.159Z,50.74
2018-07-11T13:29:34.476Z,50.70
2018-07-11T13:32:00.787Z,50.38
2018-07-11T13:34:27.098Z,51.58
2018-07-11T13:36:53.421Z,50.84
2018-07-11T13:39:19.739Z,50.92
2018-07-11T13:41:46.053Z,50.81
2018-07-11T13:44:12.397Z,52.80
2018-07-11T13:46:38.724Z,51.32
2018-07-11T13:49:05.035Z,51.26
2018-07-11T13:51:31.350Z,51.00
2018-07-11T13:53:57.697Z,51.11
2018-07-11T13:56:24.025Z,51.54
2018-07-11T13:58:50.334Z,53.88
2018-07-11T14:01:16.692Z,52.54
2018-07-11T14:03:43.010Z,52.03
2018-07-11T14:06:09.330Z,53.19
2018-07-11T14:08:35.646Z,52.45
2018-07-11T14:11:01.967Z,52.37
2018-07-11T14:13:28.292Z,52.91
2018-07-11T14:15:54.610Z,55.81
2018-07-11T14:18:20.974Z,54.29
2018-07-11T14:20:47.341Z,54.69
2018-07-11T14:23:13.657Z,53.10
2018-07-11T14:25:39.976Z,53.10
2018-07-11T14:28:06.289Z,53.59
2018-07-11T14:30:32.624Z,53.66
2018-07-11T14:32:58.945Z,53.35
2018-07-11T14:35:25.309Z,53.08
2018-07-11T14:37:51.635Z,53.13
2018-07-11T14:40:17.947Z,53.03
2018-07-11T14:42:44.261Z,53.35
2018-07-11T14:45:16.464Z,53.11
2018-07-11T14:47:42.790Z,52.68
2018-07-11T14:50:09.106Z,53.00
2018-07-11T14:52:35.420Z,53.37
2018-07-11T14:55:01.735Z,53.45
2018-07-11T14:57:28.189Z,53.28
2018-07-11T14:59:54.433Z,53.22
2018-07-11T15:02:20.739Z,53.25
2018-07-11T15:04:47.064Z,53.39
2018-07-11T15:07:13.422Z,53.50
2018-07-11T15:09:39.737Z,53.71
2018-07-11T15:12:06.050Z,55.08
2018-07-11T15:14:32.373Z,55.26
2018-07-11T15:16:58.744Z,55.32
2018-07-11T15:19:25.047Z,55.78
2018-07-11T15:21:51.357Z,56.07
2018-07-11T15:24:17.684Z,56.90
2018-07-11T15:26:43.992Z,57.47
2018-07-11T15:29:10.303Z,57.00
2018-07-11T15:31:36.630Z,57.45
2018-07-11T15:34:02.975Z,57.93
2018-07-11T15:36:29.298Z,57.72
2018-07-11T15:38:55.662Z,58.68
2018-07-11T15:41:21.935Z,57.87
2018-07-11T15:43:48.305Z,59.83
2018-07-11T15:46:14.591Z,60.23
2018-07-11T15:48:40.944Z,59.42
2018-07-11T15:51:07.281Z,59.89
2018-07-11T15:53:33.611Z,59.39
2018-07-11T15:55:59.895Z,62.51
2018-07-11T15:58:26.230Z,59.39
2018-07-11T16:00:52.572Z,59.45
2018-07-11T16:03:18.892Z,59.64
2018-07-11T16:05:45.337Z,60.85
2018-07-11T16:08:11.525Z,62.95
2018-07-11T16:10:37.833Z,62.12
2018-07-11T16:13:04.153Z,62.53
2018-07-11T16:15:30.465Z,61.79
2018-07-11T16:17:56.788Z,61.99
2018-07-11T16:20:23.101Z,62.69
2018-07-11T16:22:49.409Z,62.03
2018-07-11T16:25:15.735Z,63.00
2018-07-11T16:27:42.107Z,64.26
2018-07-11T16:30:08.475Z,63.12
2018-07-11T16:32:34.785Z,62.97
2018-07-11T16:35:01.092Z,61.38
2018-07-11T16:37:27.413Z,60.83
2018-07-11T16:39:53.729Z,63.62
2018-07-11T16:42:20.077Z,63.59
2018-07-11T16:44:46.441Z,62.47
2018-07-11T16:47:12.757Z,64.42
2018-07-11T16:49:39.071Z,64.48
2018-07-11T16:52:05.390Z,66.17
2018-07-11T16:54:31.701Z,67.67
2018-07-11T16:56:59.695Z,67.22
2018-07-11T16:59:24.329Z,64.56
2018-07-11T17:01:50.636Z,65.07
2018-07-11T17:04:16.954Z,66.09
2018-07-11T17:06:43.273Z,66.06
2018-07-11T17:09:09.595Z,68.69
2018-07-11T17:11:36.347Z,68.88
2018-07-11T17:14:02.529Z,67.18
2018-07-11T17:16:29.402Z,67.61
2018-07-11T17:18:55.717Z,69.30
2018-07-11T17:21:22.052Z,69.51
2018-07-11T17:23:48.365Z,69.77
2018-07-11T17:26:14.689Z,71.08
2018-07-11T17:28:41.032Z,71.81
2018-07-11T17:31:07.354Z,74.57
2018-07-11T17:33:33.684Z,73.09
2018-07-11T17:36:00.027Z,75.65
2018-07-11T17:38:26.428Z,76.97
2018-07-11T17:40:52.745Z,76.04
2018-07-11T17:43:19.027Z,75.79
2018-07-11T17:45:45.341Z,77.82
2018-07-11T17:48:11.736Z,79.48
2018-07-11T17:50:38.018Z,79.83
2018-07-11T17:53:04.374Z,80.58
2018-07-11T17:55:30.701Z,79.30
2018-07-11T17:57:57.026Z,77.99
2018-07-11T18:00:23.393Z,77.30
2018-07-11T18:02:49.720Z,80.16
2018-07-11T18:05:16.087Z,79.63
2018-07-11T18:07:42.414Z,81.18
2018-07-11T18:10:08.758Z,79.96
2018-07-11T18:12:35.093Z,79.64
2018-07-11T18:15:01.452Z,79.10
2018-07-11T18:17:27.735Z,80.07
2018-07-11T18:19:54.100Z,79.75
2018-07-11T18:22:20.409Z,80.17
2018-07-11T18:24:46.717Z,79.43
2018-07-11T18:27:13.073Z,79.50
2018-07-11T18:29:39.401Z,79.76
2018-07-11T18:32:05.741Z,81.04
2018-07-11T18:34:32.051Z,79.76
2018-07-11T18:36:58.407Z,79.59
2018-07-11T18:39:24.771Z,80.82
2018-07-11T18:41:51.139Z,83.28
2018-07-11T18:44:17.451Z,82.80
2018-07-11T18:46:43.763Z,80.49
2018-07-11T18:49:10.100Z,79.58
2018-07-11T18:51:36.415Z,80.72
2018-07-11T18:54:02.738Z,81.43
2018-07-11T18:56:29.069Z,81.71
2018-07-11T18:58:55.375Z,81.59
2018-07-11T19:01:21.735Z,81.71
2018-07-11T19:03:48.045Z,81.97
2018-07-11T19:06:14.599Z,82.08
2018-07-11T19:08:40.734Z,83.91
2018-07-11T19:11:07.063Z,84.08
2018-07-11T19:13:33.409Z,85.65
2018-07-11T19:15:59.704Z,85.15
2018-07-11T19:18:26.048Z,85.20
2018-07-11T19:20:52.377Z,84.98
2018-07-11T19:23:18.691Z,85.40
2018-07-11T19:25:45.112Z,84.81
2018-07-11T19:28:11.404Z,84.06
2018-07-11T19:30:37.734Z,81.22
2018-07-11T19:33:04.072Z,82.14
2018-07-11T19:35:30.409Z,83.83
2018-07-11T19:37:56.739Z,81.26
2018-07-11T19:40:23.071Z,79.64
2018-07-11T19:42:49.432Z,82.96
2018-07-11T19:45:15.786Z,84.25
2018-07-11T19:47:42.102Z,83.80
2018-07-11T19:50:08.426Z,84.24
2018-07-11T19:52:34.748Z,83.96
2018-07-11T19:55:01.117Z,85.36
2018-07-11T19:57:27.430Z,85.74
2018-07-11T19:59:53.748Z,85.37
2018-07-11T20:02:20.060Z,85.41
2018-07-11T20:04:46.379Z,85.88
2018-07-11T20:07:12.733Z,85.34
2018-07-11T20:09:39.039Z,85.32
2018-07-11T20:12:05.352Z,84.83
2018-07-11T20:14:31.673Z,86.32
2018-07-11T20:16:57.990Z,85.91
2018-07-11T20:19:24.329Z,85.71
2018-07-11T20:21:50.628Z,85.57
2018-07-11T20:24:16.937Z,84.54
2018-07-11T20:26:43.257Z,85.09
2018-07-11T20:29:09.592Z,85.07
2018-07-11T20:31:35.909Z,85.59
2018-07-11T20:34:02.231Z,85.49
2018-07-11T20:36:28.563Z,86.33
2018-07-11T20:38:54.871Z,85.50
2018-07-11T20:41:21.193Z,84.01
2018-07-11T20:43:47.499Z,84.19
2018-07-11T20:46:13.882Z,83.09
2018-07-11T20:48:40.153Z,83.02
2018-07-11T20:51:06.262Z,82.15
2018-07-11T20:53:32.578Z,81.69
2018-07-11T20:55:58.896Z,77.46
2018-07-11T20:58:25.205Z,77.38
2018-07-11T21:00:51.555Z,80.30
2018-07-11T21:03:17.868Z,84.07
2018-07-11T21:05:44.178Z,81.39
2018-07-11T21:08:10.499Z,80.66
2018-07-11T21:10:36.906Z,82.68
2018-07-11T21:14:13.631Z,84.64
2018-07-11T21:15:34.962Z,83.11
2018-07-11T21:18:01.287Z,85.01
2018-07-11T21:20:27.563Z,85.71
2018-07-11T21:23:08.110Z,84.92
2018-07-11T21:25:24.707Z,83.54
2018-07-11T21:27:50.941Z,82.95
2018-07-11T21:30:19.427Z,83.19
2018-07-11T21:32:43.559Z,83.56
2018-07-11T21:35:09.885Z,85.47
2018-07-11T21:37:36.186Z,86.89
2018-07-11T21:40:15.919Z,85.82
2018-07-11T21:42:46.144Z,85.26
2018-07-11T21:45:20.006Z,86.11
2018-07-11T21:47:46.336Z,87.61
2018-07-11T21:50:15.451Z,87.33
2018-07-11T21:52:41.769Z,87.91
2018-07-11T21:55:08.075Z,88.94
2018-07-11T21:57:34.394Z,90.59
2018-07-11T22:00:00.711Z,90.60
2018-07-11T22:02:27.105Z,91.69
2018-07-11T22:04:53.458Z,92.00
2018-07-11T22:07:19.767Z,93.74
2018-07-11T22:09:46.085Z,93.99
2018-07-11T22:12:12.397Z,94.62
2018-07-11T22:14:38.709Z,94.24
2018-07-11T22:17:05.027Z,95.31
2018-07-11T22:19:31.356Z,95.67
2018-07-11T22:21:57.715Z,95.56
2018-07-11T22:24:24.052Z,96.25
2018-07-11T22:26:50.333Z,96.10
2018-07-11T22:29:16.651Z,95.94
2018-07-11T22:31:42.961Z,96.73
2018-07-11T22:34:09.338Z,98.11
2018-07-11T22:36:35.659Z,97.96
2018-07-11T22:39:01.976Z,97.95
2018-07-11T22:41:28.331Z,97.85
2018-07-11T22:43:54.643Z,98.12
2018-07-11T22:46:20.996Z,98.82
2018-07-11T22:48:47.308Z,98.65
2018-07-11T22:51:13.619Z,98.74
2018-07-11T22:53:39.928Z,98.73
2018-07-11T22:56:06.281Z,100.00
2018-07-11T22:58:32.595Z,100.00
2018-07-11T23:00:58.914Z,100.00
2018-07-11T23:03:25.231Z,100.00
2018-07-11T23:05:51.540Z,100.00
2018-07-11T23:08:17.915Z,100.00
2018-07-11T23:10:44.200Z,100.00
2018-07-11T23:13:10.513Z,100.00
2018-07-11T23:15:36.863Z,100.00
2018-07-11T23:18:03.176Z,100.00
2018-07-11T23:20:29.529Z,100.00
2018-07-11T23:22:55.808Z,100.00
2018-07-11T23:25:22.126Z,100.00
2018-07-11T23:27:48.445Z,100.00
2018-07-11T23:30:14.760Z,100.00
2018-07-11T23:32:41.077Z,100.00
2018-07-11T23:35:07.397Z,100.00
2018-07-11T23:37:33.711Z,100.00
2018-07-11T23:40:00.028Z,100.00
2018-07-11T23:42:26.345Z,100.00
2018-07-11T23:44:52.652Z,100.00
2018-07-11T23:47:18.968Z,100.00
2018-07-11T23:49:45.285Z,100.00
2018-07-11T23:52:11.644Z,100.00
2018-07-11T23:54:37.963Z,100.00
2018-07-11T23:57:04.279Z,100.00
2018-07-11T23:59:30.649Z,100.00
